In Rescue
 
Open Full Screen Window  High Contrast Mode
August 09, 2020 6:46 PM CDT
Weather Information
Wind Direction
  ---
Wind Speed
  00 kt (0 mph)
Wind Gust
  00 kt (0 mph)
Altimeter
29.80 in
Visibility
10 SM
Temperature
32° C
90° F
Dewpoint
23° C
73° F
Humidity
59%
1hr Rain Fall
00.00 in.
24hr Rain Fall
00.00 in.
Sky Condition
Clear
VFR

METAR KDXX 092346Z AUTO 00000KT 10SM CLR 32/23 A2980 RMK AO2 PWINO

FAA Disclaimer: The data displayed is for advisory purposes only and is not to be used for flight planning or operations.